Time;durP1;ratioP1;P1;durP2;ratioP2;P2;SDS_P1;SDS_P2;PMS_P1;PMS_P2;Temp;Humidity;BMP_temperature;BMP_pressure;BME280_temperature;BME280_humidity;BME280_pressure;Samples;Min_cycle;Max_cycle;Signal;HPM_P1;HPM_P2
2022/03/09 00:02:31;;;;;;;2.30;1.50;;;17.80;25.40;20.30;94189.00;;;;10272502;28;45197;-59
2022/03/09 00:07:31;;;;;;;1.60;1.30;;;17.80;25.40;20.30;94196.00;;;;10270715;28;48374;-60
2022/03/09 00:12:32;;;;;;;2.88;1.58;;;17.80;25.30;20.30;94198.00;;;;10272536;28;45152;-59
2022/03/09 00:17:33;;;;;;;2.15;1.52;;;17.80;25.30;20.30;94195.00;;;;10287157;28;45185;-61
2022/03/09 00:22:35;;;;;;;1.80;1.40;;;17.80;25.30;20.30;94186.00;;;;10270639;28;47194;-61
2022/03/09 00:27:35;;;;;;;2.45;1.50;;;17.80;25.20;20.30;94200.00;;;;10270166;28;47175;-61
2022/03/09 00:32:39;;;;;;;2.53;1.58;;;17.80;25.20;20.30;94194.00;;;;10270601;28;48313;-62
2022/03/09 00:37:40;;;;;;;1.75;1.50;;;17.80;25.20;20.30;94206.00;;;;10286273;28;45245;-61
2022/03/09 00:42:41;;;;;;;2.67;1.73;;;17.80;25.20;20.30;94214.00;;;;10289936;28;45232;-62
2022/03/09 00:47:41;;;;;;;2.25;1.52;;;17.80;25.20;20.20;94215.00;;;;10293285;28;45429;-61
2022/03/09 00:52:42;;;;;;;1.90;1.60;;;17.80;25.10;20.30;94224.00;;;;10293383;28;45353;-61
2022/03/09 00:57:43;;;;;;;2.10;1.50;;;17.80;25.20;20.30;94229.00;;;;10293224;28;45241;-62
2022/03/09 01:02:45;;;;;;;2.30;1.70;;;17.80;25.10;20.20;94229.00;;;;10293351;28;45652;-61
2022/03/09 01:07:46;;;;;;;2.05;1.45;;;17.80;25.10;20.20;94236.00;;;;10260041;28;48294;-61
2022/03/09 01:12:47;;;;;;;2.20;1.55;;;17.80;25.10;20.30;94232.00;;;;10277966;28;45161;-62
2022/03/09 01:17:47;;;;;;;2.70;1.65;;;17.80;25.10;20.20;94229.00;;;;10292368;28;47006;-61
2022/03/09 01:22:48;;;;;;;2.47;1.75;;;17.80;25.10;20.20;94220.00;;;;10292459;28;45416;-62
2022/03/09 01:27:49;;;;;;;1.60;1.40;;;17.80;25.60;20.20;94208.00;;;;10292571;28;45590;-61
2022/03/09 01:32:51;;;;;;;1.80;1.50;;;17.80;25.10;20.20;94230.00;;;;10292255;28;46675;-62
2022/03/09 01:37:52;;;;;;;2.08;1.63;;;17.80;25.10;20.20;94218.00;;;;10320785;23;46287;-58
2022/03/09 01:42:53;;;;;;;1.88;1.40;;;17.80;25.00;20.20;94236.00;;;;10317556;28;45357;-62
2022/03/09 01:47:53;;;;;;;1.98;1.50;;;17.70;25.00;20.20;94211.00;;;;10309994;28;45579;-58
2022/03/09 01:52:54;;;;;;;2.13;1.50;;;17.70;25.10;20.20;94221.00;;;;10292101;28;45146;-60
2022/03/09 01:57:55;;;;;;;1.92;1.60;;;17.70;25.00;20.20;94224.00;;;;10291262;28;45181;-59
2022/03/09 02:02:55;;;;;;;2.15;1.70;;;17.70;25.00;20.20;94228.00;;;;10272309;28;45379;-62
2022/03/09 02:13:16;;;;;;;2.03;1.50;;;17.80;24.90;20.20;94230.00;;;;10289882;28;45155;-63
2022/03/09 02:18:16;;;;;;;2.45;1.80;;;17.80;24.90;20.20;94231.00;;;;10291554;28;45181;-60
2022/03/09 02:23:17;;;;;;;2.22;1.63;;;17.80;24.80;20.20;94223.00;;;;10274944;28;47346;-59
2022/03/09 02:28:18;;;;;;;1.52;1.30;;;17.80;24.80;20.20;94226.00;;;;10291127;28;46501;-61
2022/03/09 02:33:18;;;;;;;2.83;1.50;;;17.80;24.80;20.20;94230.00;;;;10276247;28;45213;-60
2022/03/09 02:38:19;;;;;;;2.33;1.73;;;17.80;24.80;20.20;94220.00;;;;10273240;28;48221;-61
2022/03/09 02:43:20;;;;;;;2.28;1.70;;;17.80;24.80;20.20;94233.00;;;;10289906;28;45765;-61
2022/03/09 02:48:20;;;;;;;2.85;1.60;;;17.80;24.70;20.20;94233.00;;;;10289633;28;45174;-59
2022/03/09 02:53:22;;;;;;;4.10;1.75;;;17.80;24.80;20.20;94228.00;;;;10290146;28;45336;-59
2022/03/09 02:58:23;;;;;;;2.55;1.77;;;17.80;24.70;20.30;94224.00;;;;10288953;28;45323;-60
2022/03/09 03:03:24;;;;;;;2.38;1.60;;;17.80;24.70;20.30;94220.00;;;;10289663;28;45300;-60
2022/03/09 03:08:24;;;;;;;2.00;1.60;;;17.80;24.70;20.20;94221.00;;;;10288039;28;45391;-60
2022/03/09 03:13:25;;;;;;;1.63;1.35;;;17.80;24.70;20.30;94222.00;;;;10274360;28;46566;-62
2022/03/09 03:18:26;;;;;;;2.35;1.77;;;17.80;24.70;20.30;94225.00;;;;10272235;28;47237;-60
2022/03/09 03:23:29;;;;;;;2.42;1.85;;;17.80;24.70;20.30;94233.00;;;;10273948;28;45607;-61
2022/03/09 03:28:30;;;;;;;2.33;1.80;;;17.80;24.60;20.30;94230.00;;;;10271644;28;47148;-61
2022/03/09 03:33:30;;;;;;;2.60;1.88;;;17.80;24.70;20.30;94226.00;;;;10272205;28;47120;-60
2022/03/09 03:38:31;;;;;;;2.75;1.63;;;17.80;24.60;20.30;94231.00;;;;10272725;28;46482;-60
2022/03/09 03:43:32;;;;;;;2.45;1.90;;;17.80;24.60;20.30;94232.00;;;;10288398;28;46334;-60
2022/03/09 03:48:32;;;;;;;2.15;1.80;;;17.80;24.60;20.30;94231.00;;;;10273054;28;45823;-60
2022/03/09 03:53:33;;;;;;;2.10;1.60;;;17.80;24.60;20.30;94235.00;;;;10288035;28;46629;-60
2022/03/09 03:58:34;;;;;;;1.95;1.70;;;17.80;24.60;20.20;94244.00;;;;10287264;28;46065;-61
2022/03/09 04:03:34;;;;;;;1.90;1.60;;;17.80;24.60;20.30;94256.00;;;;10271598;28;47569;-60
2022/03/09 04:08:35;;;;;;;2.70;1.70;;;17.80;24.60;20.30;94249.00;;;;10272264;28;45392;-60
2022/03/09 04:13:36;;;;;;;2.05;1.75;;;17.80;24.60;20.20;94235.00;;;;10272568;28;45117;-60
2022/03/09 04:18:37;;;;;;;2.58;1.80;;;17.80;24.60;20.20;94241.00;;;;10287256;28;45359;-62
2022/03/09 04:23:37;;;;;;;2.53;1.85;;;17.80;24.60;20.20;94239.00;;;;10287345;28;45466;-60
2022/03/09 04:28:38;;;;;;;2.55;1.63;;;17.80;24.60;20.20;94237.00;;;;10271612;28;46464;-60
2022/03/09 04:33:39;;;;;;;2.75;1.92;;;17.80;24.60;20.20;94251.00;;;;10287007;28;46200;-60
2022/03/09 04:38:39;;;;;;;1.60;1.50;;;17.80;24.60;20.20;94251.00;;;;10286364;28;45313;-60
2022/03/09 04:43:40;;;;;;;2.55;1.88;;;17.80;24.50;20.20;94246.00;;;;10286548;28;46173;-60
2022/03/09 04:48:41;;;;;;;2.65;1.80;;;17.80;24.60;20.30;94245.00;;;;10271154;28;45381;-60
2022/03/09 04:53:42;;;;;;;3.50;1.90;;;17.80;24.50;20.30;94248.00;;;;10271906;28;45177;-61
2022/03/09 04:58:43;;;;;;;2.38;1.80;;;17.80;24.50;20.20;94251.00;;;;10285973;28;46724;-61
2022/03/09 05:03:43;;;;;;;2.20;1.65;;;17.80;24.50;20.20;94262.00;;;;10286138;28;45288;-60
2022/03/09 05:08:44;;;;;;;3.13;2.00;;;17.80;24.50;20.20;94244.00;;;;10270718;28;45338;-61
2022/03/09 05:13:44;;;;;;;2.30;2.00;;;17.80;24.50;20.20;94251.00;;;;10271042;28;46718;-60
2022/03/09 05:18:45;;;;;;;2.75;2.00;;;17.80;24.40;20.30;94261.00;;;;10285474;28;45313;-61
2022/03/09 05:23:46;;;;;;;2.63;2.00;;;17.80;24.40;20.30;94254.00;;;;10269194;28;47040;-60
2022/03/09 05:28:47;;;;;;;3.03;2.28;;;17.80;24.40;20.30;94263.00;;;;10287188;28;45251;-60
2022/03/09 05:33:48;;;;;;;3.15;2.08;;;17.80;24.40;20.30;94261.00;;;;10277185;28;46453;-60
2022/03/09 05:38:48;;;;;;;3.17;2.20;;;17.90;24.40;20.30;94251.00;;;;10291759;28;46200;-60
2022/03/09 05:43:50;;;;;;;2.78;1.92;;;17.90;24.50;20.30;94265.00;;;;10277286;28;45432;-61
2022/03/09 05:48:50;;;;;;;2.65;2.10;;;17.90;24.40;20.30;94262.00;;;;10291195;28;45224;-59
2022/03/09 05:53:51;;;;;;;2.92;2.28;;;17.90;24.40;20.30;94267.00;;;;10276992;28;45574;-60
2022/03/09 05:58:52;;;;;;;2.70;1.88;;;17.90;24.40;20.30;94277.00;;;;10274939;28;48387;-60
2022/03/09 06:03:52;;;;;;;2.55;2.17;;;17.80;24.40;20.30;94276.00;;;;10291948;28;45245;-61
2022/03/09 06:08:53;;;;;;;3.17;2.13;;;17.80;24.40;20.30;94277.00;;;;10277992;28;47082;-61
2022/03/09 06:13:54;;;;;;;3.10;2.15;;;17.80;24.40;20.30;94291.00;;;;10316136;28;46244;-61
2022/03/09 06:18:54;;;;;;;2.90;2.30;;;17.80;24.50;20.30;94288.00;;;;10316862;28;45379;-59
2022/03/09 06:23:55;;;;;;;2.85;2.30;;;17.80;24.40;20.30;94297.00;;;;10316963;28;45633;-60
2022/03/09 06:28:56;;;;;;;3.08;2.38;;;17.80;24.40;20.30;94302.00;;;;10316510;28;45330;-61
2022/03/09 06:33:56;;;;;;;3.45;2.28;;;17.80;24.40;20.30;94302.00;;;;10316927;28;45489;-60
2022/03/09 06:38:57;;;;;;;3.35;2.40;;;17.80;24.40;20.30;94310.00;;;;10315271;28;45318;-60
2022/03/09 06:43:58;;;;;;;3.88;2.10;;;17.90;24.50;20.30;94305.00;;;;10316303;28;45537;-59
2022/03/09 06:48:58;;;;;;;3.30;2.25;;;17.90;24.50;20.30;94306.00;;;;10315567;28;46744;-60
2022/03/09 06:54:00;;;;;;;3.10;2.20;;;17.90;24.50;20.30;94307.00;;;;10314711;28;45219;-60
2022/03/09 06:59:01;;;;;;;3.17;2.33;;;17.90;24.50;20.30;94305.00;;;;10312116;28;46624;-61
2022/03/09 07:04:01;;;;;;;3.70;2.40;;;17.90;24.50;20.40;94317.00;;;;10309381;28;46593;-60
2022/03/09 07:09:02;;;;;;;3.47;2.47;;;17.90;24.50;20.30;94322.00;;;;10297093;28;47282;-60
2022/03/09 07:14:03;;;;;;;3.10;2.28;;;17.90;24.50;20.30;94337.00;;;;10312264;28;45183;-62
2022/03/09 07:19:05;;;;;;;2.70;2.20;;;17.90;24.50;20.30;94320.00;;;;10282289;28;46488;-60
2022/03/09 07:24:06;;;;;;;4.00;2.33;;;17.90;24.60;20.30;94330.00;;;;10256117;28;47562;-59
2022/03/09 07:29:09;;;;;;;2.55;1.98;;;17.90;24.60;20.30;94322.00;;;;10272919;28;46123;-59
2022/03/09 07:34:09;;;;;;;4.78;2.30;;;17.90;24.80;20.30;94332.00;;;;10273436;28;45288;-59
2022/03/09 07:39:10;;;;;;;2.33;1.80;;;17.90;24.80;20.30;94331.00;;;;10339642;23;45326;-60
2022/03/09 07:44:11;;;;;;;4.03;2.13;;;17.90;24.80;20.30;94328.00;;;;10369755;28;45329;-61
2022/03/09 07:49:11;;;;;;;3.15;2.08;;;17.90;24.90;20.30;94348.00;;;;10368907;28;45229;-61
2022/03/09 07:54:13;;;;;;;7.65;4.00;;;17.90;24.90;19.70;94348.00;;;;10352681;28;47884;-61
2022/03/09 07:59:13;;;;;;;4.60;2.83;;;17.20;25.00;20.20;94352.00;;;;10368916;28;46438;-61
2022/03/09 08:04:14;;;;;;;4.47;2.90;;;17.60;25.10;20.30;94378.00;;;;10369325;28;45907;-61
2022/03/09 08:09:15;;;;;;;7.07;4.90;;;17.80;25.00;20.20;94361.00;;;;10352491;28;45313;-61
2022/03/09 08:14:15;;;;;;;11.02;7.22;;;17.70;24.50;20.10;94381.00;;;;10368107;28;45977;-61
2022/03/09 08:19:16;;;;;;;10.25;6.57;;;17.60;23.20;20.10;94379.00;;;;10367160;28;46306;-61
2022/03/09 08:24:17;;;;;;;8.55;5.78;;;17.60;23.50;20.20;94381.00;;;;10351451;28;47995;-61
2022/03/09 08:29:17;;;;;;;8.55;5.38;;;17.70;23.80;20.20;94381.00;;;;10351835;28;47609;-61
2022/03/09 08:34:18;;;;;;;6.70;4.68;;;17.70;23.90;20.20;94394.00;;;;10351963;28;47234;-61
2022/03/09 08:39:18;;;;;;;7.68;4.32;;;17.80;23.90;20.30;94384.00;;;;10350813;28;47205;-61
2022/03/09 08:44:20;;;;;;;8.13;4.15;;;17.80;24.00;20.30;94378.00;;;;10352940;28;46581;-61
2022/03/09 08:49:21;;;;;;;5.85;4.03;;;17.80;24.10;20.30;94392.00;;;;10352075;28;45210;-61
2022/03/09 08:54:21;;;;;;;6.53;3.72;;;17.90;24.20;20.30;94404.00;;;;10367592;28;45404;-61
2022/03/09 08:59:23;;;;;;;7.55;3.35;;;17.90;24.30;20.30;94401.00;;;;10351533;28;45288;-61
2022/03/09 09:04:24;;;;;;;4.93;3.45;;;17.90;24.30;20.30;94397.00;;;;10353057;28;45291;-62
2022/03/09 09:09:24;;;;;;;6.15;3.63;;;17.90;24.40;20.30;94395.00;;;;10347953;28;48240;-61
2022/03/09 09:14:26;;;;;;;6.13;3.22;;;17.90;24.50;20.30;94390.00;;;;10337975;28;47227;-61
2022/03/09 09:19:26;;;;;;;4.70;3.25;;;17.90;24.60;20.30;94393.00;;;;10368075;28;46843;-61
2022/03/09 09:24:27;;;;;;;4.68;3.35;;;17.80;24.60;20.30;94395.00;;;;10316545;28;46478;-61
2022/03/09 09:29:28;;;;;;;5.43;3.13;;;17.80;24.70;20.30;94399.00;;;;10316137;28;45221;-61
2022/03/09 09:34:29;;;;;;;5.13;3.65;;;17.80;24.80;20.30;94398.00;;;;10317006;28;45412;-61
2022/03/09 09:39:30;;;;;;;6.97;4.15;;;17.80;24.70;20.30;94386.00;;;;10314064;28;48437;-62
2022/03/09 09:44:31;;;;;;;5.53;3.55;;;17.80;24.70;20.30;94382.00;;;;10316315;28;45218;-61
2022/03/09 09:49:37;;;;;;;4.82;3.33;;;17.90;24.70;20.30;94380.00;;;;10315849;28;45197;-65
2022/03/09 09:54:37;;;;;;;4.97;3.38;;;17.90;24.90;20.50;94368.00;;;;10316599;28;46126;-63
2022/03/09 09:59:38;;;;;;;6.05;3.42;;;18.00;24.90;20.50;94383.00;;;;10315650;28;45410;-63
2022/03/09 10:04:40;;;;;;;5.65;3.30;;;18.10;24.90;20.50;94364.00;;;;10313847;28;45586;-61
2022/03/09 10:09:41;;;;;;;4.72;3.20;;;18.10;25.50;20.50;94383.00;;;;10313870;28;45350;-64
2022/03/09 10:14:54;;;;;;;5.22;3.00;;;18.20;25.10;20.60;94385.00;;;;10314775;28;47015;-61
2022/03/09 10:20:06;;;;;;;4.03;2.95;;;18.20;25.10;20.60;94362.00;;;;10314382;28;45259;-67
2022/03/09 10:25:10;;;;;;;4.60;3.10;;;18.20;25.20;20.60;94374.00;;;;10315663;28;45590;-65
2022/03/09 10:30:16;;;;;;;4.05;2.90;;;18.20;25.40;20.60;94356.00;;;;10316456;28;46588;-71
2022/03/09 10:35:32;;;;;;;4.43;3.10;;;18.20;25.40;20.60;94361.00;;;;10315748;28;46986;-69
2022/03/09 10:40:45;;;;;;;4.65;3.15;;;18.20;25.50;20.60;94371.00;;;;10315610;28;47335;-65
2022/03/09 10:46:06;;;;;;;4.75;3.17;;;18.20;25.60;20.60;94382.00;;;;10314327;28;45221;-63
2022/03/09 10:51:07;;;;;;;7.22;3.00;;;18.20;25.70;20.60;94364.00;;;;10314681;28;45411;-60
2022/03/09 10:56:07;;;;;;;5.47;2.95;;;18.20;25.80;20.60;94367.00;;;;10311412;28;48506;-61
2022/03/09 11:01:19;;;;;;;4.95;2.78;;;18.20;25.90;20.60;94364.00;;;;10312718;28;48245;-63
2022/03/09 11:06:21;;;;;;;4.47;2.80;;;18.20;25.80;20.60;94358.00;;;;10312251;28;45324;-59
2022/03/09 11:11:23;;;;;;;4.65;2.83;;;18.20;25.90;20.60;94351.00;;;;10314768;28;45336;-61
2022/03/09 11:16:24;;;;;;;5.03;2.80;;;18.10;25.80;20.60;94348.00;;;;10313030;28;46504;-59
2022/03/09 11:21:24;;;;;;;2.92;2.38;;;18.20;25.80;20.50;94341.00;;;;10312692;28;45412;-60
2022/03/09 11:26:29;;;;;;;4.28;2.53;;;18.10;25.70;20.60;94339.00;;;;10311781;28;45287;-60
2022/03/09 11:31:49;;;;;;;3.15;2.25;;;18.10;25.90;20.60;94345.00;;;;10312516;28;46221;-60
2022/03/09 11:37:06;;;;;;;4.10;2.30;;;18.10;25.80;20.60;94341.00;;;;10312425;28;46261;-60
2022/03/09 11:42:22;;;;;;;3.55;2.30;;;18.20;25.90;20.60;94333.00;;;;10328397;28;46877;-61
2022/03/09 11:47:23;;;;;;;4.57;2.70;;;18.20;26.00;20.60;94328.00;;;;10313277;28;46570;-61
2022/03/09 11:52:26;;;;;;;5.22;2.60;;;18.20;26.10;20.60;94327.00;;;;10313571;28;45306;-61
2022/03/09 11:57:45;;;;;;;5.57;2.90;;;18.20;26.30;20.60;94320.00;;;;10311508;28;45256;-61
2022/03/09 12:02:51;;;;;;;4.47;2.70;;;18.20;26.30;20.70;94328.00;;;;10311521;28;47306;-61
2022/03/09 12:07:52;;;;;;;4.10;2.50;;;18.20;26.40;20.60;94306.00;;;;10308089;28;45508;-61
2022/03/09 12:13:15;;;;;;;3.65;2.45;;;18.20;26.50;20.60;94313.00;;;;10308831;28;45650;-61
2022/03/09 12:18:49;;;;;;;5.18;2.60;;;18.20;26.50;20.60;94311.00;;;;10311344;28;45345;-61
2022/03/09 12:24:05;;;;;;;4.93;2.50;;;18.20;26.60;20.60;94309.00;;;;10310897;28;47358;-61
2022/03/09 12:29:20;;;;;;;3.97;2.20;;;18.20;26.70;20.60;94308.00;;;;10310730;28;48005;-60
2022/03/09 12:34:26;;;;;;;3.75;2.33;;;18.20;26.70;20.60;94296.00;;;;10312309;28;46213;-60
2022/03/09 12:39:27;;;;;;;3.20;2.25;;;18.20;26.70;20.60;94298.00;;;;10314765;28;46987;-61
2022/03/09 12:44:31;;;;;;;3.33;2.33;;;18.20;26.70;20.60;94307.00;;;;10318406;28;45183;-60
2022/03/09 12:49:43;;;;;;;3.72;2.25;;;18.20;26.80;20.70;94295.00;;;;10317695;28;47011;-61
2022/03/09 12:54:54;;;;;;;4.40;2.50;;;18.20;26.80;20.60;94293.00;;;;10317933;28;45633;-61
2022/03/09 13:00:02;;;;;;;3.90;2.47;;;18.10;26.80;20.70;94274.00;;;;10319065;28;45611;-60
2022/03/09 13:05:03;;;;;;;3.10;2.20;;;18.20;27.30;20.70;94287.00;;;;10317629;28;47623;-60
2022/03/09 13:10:07;;;;;;;4.68;2.55;;;18.20;26.80;20.70;94286.00;;;;10317102;28;46818;-60
2022/03/09 13:15:08;;;;;;;3.42;2.20;;;18.20;26.80;20.70;94273.00;;;;10317550;28;45603;-60
2022/03/09 13:20:10;;;;;;;2.75;2.08;;;18.30;26.90;20.70;94273.00;;;;10316649;28;47550;-61
2022/03/09 13:25:11;;;;;;;3.58;1.85;;;18.20;26.80;20.80;94274.00;;;;10316577;28;46996;-62
2022/03/09 13:30:19;;;;;;;3.08;2.13;;;18.30;27.00;20.80;94272.00;;;;10316280;28;45335;-61
2022/03/09 13:35:24;;;;;;;4.65;2.08;;;18.30;26.90;20.80;94268.00;;;;10316311;28;45570;-60
2022/03/09 13:40:25;;;;;;;3.60;2.00;;;18.30;27.10;20.80;94263.00;;;;10316279;28;45245;-61
2022/03/09 13:45:28;;;;;;;4.10;2.00;;;18.30;27.20;20.80;94265.00;;;;10315590;28;45440;-61
2022/03/09 13:50:42;;;;;;;4.00;2.15;;;18.30;27.30;20.80;94261.00;;;;10313584;28;46063;-60
2022/03/09 13:55:43;;;;;;;6.13;2.58;;;18.30;27.40;20.80;94262.00;;;;10315034;28;45291;-61
2022/03/09 14:00:46;;;;;;;4.20;2.08;;;18.30;27.40;20.80;94251.00;;;;10316897;28;45168;-61
2022/03/09 14:05:51;;;;;;;3.70;2.20;;;18.30;27.40;20.80;94248.00;;;;10314828;28;45277;-61
2022/03/09 14:11:19;;;;;;;4.55;2.20;;;18.30;27.50;20.80;94242.00;;;;10314942;28;46333;-61
2022/03/09 14:16:20;;;;;;;4.07;1.73;;;18.30;27.60;20.80;94257.00;;;;10315021;28;45537;-61
2022/03/09 14:21:21;;;;;;;5.47;2.28;;;18.30;27.70;20.80;94253.00;;;;10316233;28;45280;-61
2022/03/09 14:26:22;;;;;;;6.18;2.20;;;18.30;27.70;20.70;94256.00;;;;10314582;28;47090;-61
2022/03/09 14:31:24;;;;;;;4.70;1.95;;;18.30;28.00;20.80;94247.00;;;;10314549;28;45373;-61
2022/03/09 14:36:25;;;;;;;4.40;2.10;;;18.20;28.00;20.80;94249.00;;;;10314200;28;46775;-60
2022/03/09 14:41:26;;;;;;;3.53;2.00;;;18.30;28.20;20.80;94254.00;;;;10311665;28;47162;-61
2022/03/09 14:46:26;;;;;;;4.78;2.13;;;18.30;28.40;20.80;94236.00;;;;10313754;28;46988;-61
2022/03/09 14:51:27;;;;;;;3.58;1.88;;;18.30;28.50;20.70;94248.00;;;;10314381;28;45558;-61
2022/03/09 14:56:28;;;;;;;3.40;2.00;;;18.30;28.50;20.80;94243.00;;;;10328621;28;46363;-61
2022/03/09 15:01:29;;;;;;;3.85;2.00;;;18.30;28.50;20.80;94228.00;;;;10355720;28;45138;-60
2022/03/09 15:06:31;;;;;;;3.60;2.17;;;18.30;28.30;20.80;94233.00;;;;10355609;28;45356;-62
2022/03/09 15:11:32;;;;;;;5.30;2.35;;;18.30;28.40;20.80;94233.00;;;;10354360;28;46368;-62
2022/03/09 15:16:34;;;;;;;3.55;2.20;;;18.30;28.40;20.80;94234.00;;;;10354497;28;46705;-63
2022/03/09 15:21:34;;;;;;;4.43;2.28;;;18.40;28.10;20.90;94239.00;;;;10337224;28;47292;-62
2022/03/09 15:26:35;;;;;;;6.07;2.38;;;18.40;28.40;20.90;94230.00;;;;10349008;28;48375;-65
2022/03/09 15:31:37;;;;;;;5.45;2.17;;;18.50;28.60;20.90;94235.00;;;;10351397;28;46434;-66
2022/03/09 15:36:37;;;;;;;4.80;2.30;;;18.50;28.60;21.00;94235.00;;;;10369534;28;45210;-61
2022/03/09 15:41:38;;;;;;;4.35;2.03;;;18.50;28.60;20.90;94238.00;;;;10352085;28;46990;-61
2022/03/09 15:46:38;;;;;;;5.18;2.13;;;18.50;28.60;20.90;94239.00;;;;10368786;28;46354;-60
2022/03/09 15:51:39;;;;;;;5.47;2.30;;;18.40;28.50;20.90;94245.00;;;;10368459;28;45328;-61
2022/03/09 15:56:40;;;;;;;4.70;2.15;;;18.40;28.30;20.90;94234.00;;;;10351624;28;46984;-60
2022/03/09 16:01:41;;;;;;;5.88;1.95;;;18.40;27.80;20.80;94233.00;;;;10367555;28;45805;-60
2022/03/09 16:06:41;;;;;;;5.55;2.13;;;18.40;27.70;20.90;94231.00;;;;10348284;28;45461;-62
2022/03/09 16:11:43;;;;;;;5.55;2.10;;;18.40;27.80;20.90;94239.00;;;;10361213;28;47113;-66
2022/03/09 16:16:43;;;;;;;4.63;2.00;;;18.40;27.80;21.00;94256.00;;;;10361043;28;47675;-62
2022/03/09 16:21:46;;;;;;;5.57;2.30;;;18.50;28.00;21.00;94249.00;;;;10350364;28;48125;-63
2022/03/09 16:26:46;;;;;;;4.40;2.35;;;18.50;27.90;21.00;94251.00;;;;10367206;28;45481;-62
2022/03/09 16:31:47;;;;;;;4.78;2.00;;;18.60;28.10;21.00;94244.00;;;;10352166;28;45569;-62
2022/03/09 16:36:48;;;;;;;3.92;2.08;;;18.50;27.90;21.00;94249.00;;;;10352813;28;46139;-62
2022/03/09 16:41:48;;;;;;;10.18;5.20;;;18.50;27.80;20.90;94261.00;;;;10351345;28;45326;-66
2022/03/09 16:46:49;;;;;;;7.72;4.68;;;18.40;26.80;21.00;94258.00;;;;10354056;28;45429;-66
2022/03/09 16:51:50;;;;;;;5.07;3.33;;;18.50;27.00;21.00;94265.00;;;;10382469;28;47352;-63
2022/03/09 16:56:51;;;;;;;7.65;3.75;;;18.50;27.00;21.00;94264.00;;;;10393366;28;45611;-69
2022/03/09 17:01:51;;;;;;;5.65;3.28;;;18.50;27.10;21.00;94261.00;;;;10392572;28;48344;-71
2022/03/09 17:06:52;;;;;;;5.45;3.30;;;18.50;27.10;21.00;94275.00;;;;10360588;28;48113;-64
2022/03/09 17:11:54;;;;;;;7.38;2.97;;;18.50;27.30;21.00;94286.00;;;;10367541;28;46850;-63
2022/03/09 17:16:55;;;;;;;4.65;2.55;;;18.50;27.30;20.90;94287.00;;;;10366708;28;45319;-64
2022/03/09 17:21:55;;;;;;;7.28;3.17;;;18.50;27.20;20.90;94280.00;;;;10351914;28;46327;-63
2022/03/09 17:26:56;;;;;;;7.15;3.55;;;18.50;27.20;20.90;94298.00;;;;10356427;28;45312;-61
2022/03/09 17:31:56;;;;;;;6.53;3.58;;;18.50;27.10;20.90;94296.00;;;;10374346;28;46766;-62
2022/03/09 17:36:57;;;;;;;7.38;3.63;;;18.40;27.30;20.90;94304.00;;;;10371243;28;45388;-62
2022/03/09 17:41:58;;;;;;;6.63;3.40;;;18.50;27.40;20.90;94314.00;;;;10358293;28;45175;-63
2022/03/09 17:46:59;;;;;;;6.93;3.28;;;18.40;27.20;20.90;94319.00;;;;10357289;28;45604;-61
2022/03/09 17:51:59;;;;;;;7.70;3.40;;;18.40;27.30;20.90;94325.00;;;;10358007;28;46738;-63
2022/03/09 17:57:03;;;;;;;6.00;3.45;;;18.40;27.40;20.90;94334.00;;;;10356665;28;46186;-63
2022/03/09 18:02:09;;;;;;;6.05;3.05;;;18.40;27.40;20.80;94333.00;;;;10353858;28;45259;-62
2022/03/09 18:07:10;;;;;;;6.30;3.17;;;18.40;27.40;20.80;94334.00;;;;10353068;28;47503;-62
2022/03/09 18:12:11;;;;;;;6.63;3.45;;;18.30;27.50;20.80;94350.00;;;;10356776;28;45300;-62
2022/03/09 18:17:11;;;;;;;7.88;3.80;;;18.30;27.50;20.80;94351.00;;;;10356288;28;47090;-62
2022/03/09 18:22:12;;;;;;;6.25;3.50;;;18.30;27.40;20.80;94368.00;;;;10356678;28;45607;-62
2022/03/09 18:27:17;;;;;;;6.28;3.50;;;18.30;27.40;20.80;94372.00;;;;10356082;28;46979;-62
2022/03/09 18:32:18;;;;;;;8.15;4.03;;;18.30;27.40;20.80;94363.00;;;;10355526;28;46102;-62
2022/03/09 18:37:19;;;;;;;6.57;3.45;;;18.30;27.30;20.70;94355.00;;;;10356368;28;46268;-62
2022/03/09 18:42:20;;;;;;;7.38;3.53;;;18.20;27.30;20.80;94356.00;;;;10355133;28;47480;-62
2022/03/09 18:47:20;;;;;;;6.63;3.92;;;18.30;27.20;20.70;94351.00;;;;10356581;28;46035;-62
2022/03/09 18:52:21;;;;;;;6.90;3.60;;;18.20;27.10;20.70;94360.00;;;;10355418;28;46581;-63
2022/03/09 18:57:22;;;;;;;7.65;3.97;;;18.30;27.20;20.70;94372.00;;;;10354284;28;45658;-64
2022/03/09 19:02:23;;;;;;;5.38;3.35;;;18.20;27.10;20.70;94372.00;;;;10354209;28;45611;-64
2022/03/09 19:07:23;;;;;;;6.05;3.28;;;18.20;27.00;20.70;94368.00;;;;10354181;28;45467;-63
2022/03/09 19:12:24;;;;;;;5.00;3.55;;;18.20;27.00;20.70;94375.00;;;;10355088;28;45213;-62
2022/03/09 19:17:24;;;;;;;6.78;3.78;;;18.20;26.90;20.70;94387.00;;;;10353207;28;47632;-63
2022/03/09 19:22:25;;;;;;;6.68;4.00;;;18.20;26.90;20.70;94373.00;;;;10355671;28;45225;-61
2022/03/09 19:27:26;;;;;;;5.38;3.28;;;18.20;26.90;20.70;94371.00;;;;10354194;28;45258;-61
2022/03/09 19:32:26;;;;;;;12.93;3.90;;;18.20;26.80;20.70;94381.00;;;;10354087;28;46030;-62
2022/03/09 19:37:27;;;;;;;6.32;4.05;;;18.20;26.80;20.70;94385.00;;;;10353902;28;45748;-61
2022/03/09 19:42:28;;;;;;;4.88;3.42;;;18.20;26.70;20.70;94389.00;;;;10354160;28;45191;-62
2022/03/09 19:47:28;;;;;;;6.68;3.67;;;18.20;26.70;20.70;94395.00;;;;10352351;28;48019;-62
2022/03/09 19:52:32;;;;;;;6.72;3.70;;;18.20;26.70;20.70;94386.00;;;;10354983;28;46511;-62
2022/03/09 19:57:35;;;;;;;6.18;3.38;;;18.20;26.60;20.70;94399.00;;;;10353245;28;46850;-63
2022/03/09 20:02:36;;;;;;;5.78;3.78;;;18.20;26.60;20.70;94398.00;;;;10353001;28;45331;-63
2022/03/09 20:07:38;;;;;;;5.00;3.55;;;18.20;26.60;20.60;94378.00;;;;10352923;28;45569;-62
2022/03/09 20:12:41;;;;;;;6.00;4.05;;;18.10;26.50;20.70;94399.00;;;;10353049;28;48200;-62
2022/03/09 20:17:41;;;;;;;5.43;3.72;;;18.20;26.50;20.70;94399.00;;;;10352283;28;45745;-62
2022/03/09 20:22:43;;;;;;;4.88;3.25;;;18.20;26.50;20.60;94382.00;;;;10352771;28;47915;-62
2022/03/09 20:27:44;;;;;;;5.78;3.60;;;18.20;26.50;20.70;94398.00;;;;10352073;28;47322;-62
2022/03/09 20:32:44;;;;;;;4.95;3.28;;;18.20;26.50;20.60;94378.00;;;;10352780;28;45411;-63
2022/03/09 20:37:45;;;;;;;5.53;3.40;;;18.20;26.40;20.60;94395.00;;;;10351726;28;46496;-62
2022/03/09 20:42:45;;;;;;;4.95;3.45;;;18.20;26.40;20.60;94401.00;;;;10352497;28;45542;-62
2022/03/09 20:47:46;;;;;;;5.20;3.38;;;18.20;26.40;20.60;94374.00;;;;10353128;28;45392;-62
2022/03/09 20:52:49;;;;;;;5.70;3.60;;;18.20;26.40;20.60;94400.00;;;;10353010;28;45259;-62
2022/03/09 20:57:51;;;;;;;5.50;3.67;;;18.20;26.40;20.60;94392.00;;;;10352632;28;46446;-63
2022/03/09 21:02:52;;;;;;;5.10;3.20;;;18.20;26.40;20.60;94407.00;;;;10359375;28;45606;-62
2022/03/09 21:07:54;;;;;;;4.72;3.15;;;18.10;26.30;20.60;94399.00;;;;10360152;28;45399;-62
2022/03/09 21:12:54;;;;;;;5.30;3.33;;;18.10;26.30;20.60;94398.00;;;;10360120;28;45359;-62
2022/03/09 21:17:55;;;;;;;4.78;3.05;;;18.10;26.30;20.60;94407.00;;;;10357804;28;46986;-62
2022/03/09 21:22:56;;;;;;;5.55;3.17;;;18.10;26.30;20.60;94383.00;;;;10358059;28;47529;-62
2022/03/09 21:27:56;;;;;;;6.00;3.40;;;18.10;26.30;20.60;94392.00;;;;10357913;28;45220;-63
2022/03/09 21:32:58;;;;;;;4.93;3.10;;;18.10;26.30;20.60;94416.00;;;;10357702;28;48163;-62
2022/03/09 21:37:58;;;;;;;5.85;3.17;;;18.10;26.30;20.60;94397.00;;;;10357319;28;45316;-63
2022/03/09 21:43:00;;;;;;;4.70;3.03;;;18.10;26.40;20.60;94404.00;;;;10358752;28;45376;-62
2022/03/09 21:48:01;;;;;;;4.70;3.00;;;18.10;26.40;20.60;94395.00;;;;10357190;28;47258;-62
2022/03/09 21:53:07;;;;;;;5.05;3.50;;;18.10;26.40;20.50;94402.00;;;;10358827;28;45177;-62
2022/03/09 21:58:07;;;;;;;3.70;2.63;;;18.10;26.40;20.50;94405.00;;;;10356826;28;47151;-63
2022/03/09 22:03:09;;;;;;;3.78;2.78;;;18.10;26.40;20.50;94407.00;;;;10358087;28;46160;-62
2022/03/09 22:08:10;;;;;;;4.82;2.78;;;18.10;26.40;20.50;94414.00;;;;10356516;28;47426;-62
2022/03/09 22:13:10;;;;;;;3.85;2.60;;;18.00;26.40;20.50;94414.00;;;;10355675;28;47265;-62